sensor_id;sensor_type;location;lat;lon;timestamp;P1;durP1;ratioP1;P2;durP2;ratioP2
31732;SDS011;18312;51.486;7.144;2022-07-10T00:00:17;6.30;;;1.48;;
31732;SDS011;18312;51.486;7.144;2022-07-10T00:02:46;1.38;;;0.50;;
31732;SDS011;18312;51.486;7.144;2022-07-10T00:05:13;1.60;;;0.75;;
31732;SDS011;18312;51.486;7.144;2022-07-10T00:07:39;2.45;;;1.08;;
31732;SDS011;18312;51.486;7.144;2022-07-10T00:10:06;2.90;;;0.52;;
31732;SDS011;18312;51.486;7.144;2022-07-10T00:12:33;2.33;;;0.73;;
31732;SDS011;18312;51.486;7.144;2022-07-10T00:15:02;3.05;;;0.50;;
31732;SDS011;18312;51.486;7.144;2022-07-10T00:17:29;2.57;;;0.60;;
31732;SDS011;18312;51.486;7.144;2022-07-10T00:19:56;4.15;;;1.02;;
31732;SDS011;18312;51.486;7.144;2022-07-10T00:22:23;11.85;;;0.90;;
31732;SDS011;18312;51.486;7.144;2022-07-10T00:24:50;2.35;;;0.65;;
31732;SDS011;18312;51.486;7.144;2022-07-10T00:27:17;2.20;;;0.88;;
31732;SDS011;18312;51.486;7.144;2022-07-10T00:29:44;3.40;;;0.50;;
31732;SDS011;18312;51.486;7.144;2022-07-10T00:32:13;4.95;;;0.70;;
31732;SDS011;18312;51.486;7.144;2022-07-10T00:34:39;2.70;;;0.60;;
31732;SDS011;18312;51.486;7.144;2022-07-10T00:37:06;2.58;;;0.60;;
31732;SDS011;18312;51.486;7.144;2022-07-10T00:39:33;4.50;;;0.60;;
31732;SDS011;18312;51.486;7.144;2022-07-10T00:42:07;2.60;;;0.50;;
31732;SDS011;18312;51.486;7.144;2022-07-10T00:44:35;9.10;;;0.90;;
31732;SDS011;18312;51.486;7.144;2022-07-10T00:47:02;3.00;;;1.00;;
31732;SDS011;18312;51.486;7.144;2022-07-10T00:49:31;5.07;;;0.80;;
31732;SDS011;18312;51.486;7.144;2022-07-10T00:51:59;3.83;;;0.70;;
31732;SDS011;18312;51.486;7.144;2022-07-10T00:54:26;3.70;;;0.88;;
31732;SDS011;18312;51.486;7.144;2022-07-10T00:56:54;1.98;;;0.88;;
31732;SDS011;18312;51.486;7.144;2022-07-10T00:59:21;5.38;;;0.98;;
31732;SDS011;18312;51.486;7.144;2022-07-10T01:01:48;3.20;;;0.98;;
31732;SDS011;18312;51.486;7.144;2022-07-10T01:04:16;6.70;;;0.70;;
31732;SDS011;18312;51.486;7.144;2022-07-10T01:06:44;3.50;;;0.40;;
31732;SDS011;18312;51.486;7.144;2022-07-10T01:09:11;5.18;;;0.70;;
31732;SDS011;18312;51.486;7.144;2022-07-10T01:11:38;4.45;;;0.82;;
31732;SDS011;18312;51.486;7.144;2022-07-10T01:14:05;6.82;;;0.90;;
31732;SDS011;18312;51.486;7.144;2022-07-10T01:16:32;8.07;;;0.90;;
31732;SDS011;18312;51.486;7.144;2022-07-10T01:19:00;7.95;;;0.85;;
31732;SDS011;18312;51.486;7.144;2022-07-10T01:21:28;1.23;;;0.43;;
31732;SDS011;18312;51.486;7.144;2022-07-10T01:23:56;4.28;;;0.80;;
31732;SDS011;18312;51.486;7.144;2022-07-10T01:26:23;3.40;;;0.68;;
31732;SDS011;18312;51.486;7.144;2022-07-10T01:28:51;4.88;;;0.85;;
31732;SDS011;18312;51.486;7.144;2022-07-10T01:31:19;6.28;;;0.80;;
31732;SDS011;18312;51.486;7.144;2022-07-10T01:33:46;4.03;;;0.63;;
31732;SDS011;18312;51.486;7.144;2022-07-10T01:36:13;10.05;;;1.10;;
31732;SDS011;18312;51.486;7.144;2022-07-10T01:38:41;3.30;;;0.68;;
31732;SDS011;18312;51.486;7.144;2022-07-10T01:41:08;8.77;;;1.98;;
31732;SDS011;18312;51.486;7.144;2022-07-10T01:43:35;5.20;;;1.13;;
31732;SDS011;18312;51.486;7.144;2022-07-10T01:46:02;3.08;;;1.05;;
31732;SDS011;18312;51.486;7.144;2022-07-10T01:48:29;5.68;;;1.08;;
31732;SDS011;18312;51.486;7.144;2022-07-10T01:50:56;1.90;;;0.80;;
31732;SDS011;18312;51.486;7.144;2022-07-10T01:53:24;4.65;;;1.00;;
31732;SDS011;18312;51.486;7.144;2022-07-10T01:55:52;9.15;;;1.00;;
31732;SDS011;18312;51.486;7.144;2022-07-10T01:58:19;8.15;;;0.98;;
31732;SDS011;18312;51.486;7.144;2022-07-10T02:00:46;8.32;;;0.85;;
31732;SDS011;18312;51.486;7.144;2022-07-10T02:03:13;5.90;;;0.93;;
31732;SDS011;18312;51.486;7.144;2022-07-10T02:05:58;5.57;;;0.60;;
31732;SDS011;18312;51.486;7.144;2022-07-10T02:08:24;5.70;;;0.80;;
31732;SDS011;18312;51.486;7.144;2022-07-10T02:10:52;4.80;;;0.90;;
31732;SDS011;18312;51.486;7.144;2022-07-10T02:13:20;0.80;;;0.50;;
31732;SDS011;18312;51.486;7.144;2022-07-10T02:15:47;7.03;;;1.17;;
31732;SDS011;18312;51.486;7.144;2022-07-10T02:18:13;4.78;;;0.75;;
31732;SDS011;18312;51.486;7.144;2022-07-10T02:20:40;4.82;;;1.05;;
31732;SDS011;18312;51.486;7.144;2022-07-10T02:23:07;4.63;;;1.10;;
31732;SDS011;18312;51.486;7.144;2022-07-10T02:25:33;1.67;;;0.70;;
31732;SDS011;18312;51.486;7.144;2022-07-10T02:28:03;4.65;;;1.13;;
31732;SDS011;18312;51.486;7.144;2022-07-10T02:30:30;2.92;;;0.80;;
31732;SDS011;18312;51.486;7.144;2022-07-10T02:32:56;10.23;;;0.90;;
31732;SDS011;18312;51.486;7.144;2022-07-10T02:35:23;6.28;;;0.90;;
31732;SDS011;18312;51.486;7.144;2022-07-10T02:37:50;8.52;;;1.25;;
31732;SDS011;18312;51.486;7.144;2022-07-10T02:40:16;10.88;;;1.27;;
31732;SDS011;18312;51.486;7.144;2022-07-10T02:42:43;4.82;;;1.00;;
31732;SDS011;18312;51.486;7.144;2022-07-10T02:45:11;4.20;;;0.70;;
31732;SDS011;18312;51.486;7.144;2022-07-10T02:47:38;3.83;;;1.17;;
31732;SDS011;18312;51.486;7.144;2022-07-10T02:50:05;2.95;;;1.08;;
31732;SDS011;18312;51.486;7.144;2022-07-10T02:52:33;3.55;;;0.85;;
31732;SDS011;18312;51.486;7.144;2022-07-10T02:54:59;3.20;;;0.70;;
31732;SDS011;18312;51.486;7.144;2022-07-10T02:57:26;4.22;;;1.10;;
31732;SDS011;18312;51.486;7.144;2022-07-10T02:59:53;2.80;;;1.10;;
31732;SDS011;18312;51.486;7.144;2022-07-10T03:02:21;6.78;;;0.77;;
31732;SDS011;18312;51.486;7.144;2022-07-10T03:04:47;7.15;;;0.75;;
31732;SDS011;18312;51.486;7.144;2022-07-10T03:07:14;7.18;;;0.80;;
31732;SDS011;18312;51.486;7.144;2022-07-10T03:09:41;6.05;;;1.00;;
31732;SDS011;18312;51.486;7.144;2022-07-10T03:12:07;7.20;;;1.10;;
31732;SDS011;18312;51.486;7.144;2022-07-10T03:14:34;7.72;;;1.05;;
31732;SDS011;18312;51.486;7.144;2022-07-10T03:17:01;8.88;;;1.20;;
31732;SDS011;18312;51.486;7.144;2022-07-10T03:19:29;5.85;;;0.65;;
31732;SDS011;18312;51.486;7.144;2022-07-10T03:21:56;5.80;;;1.00;;
31732;SDS011;18312;51.486;7.144;2022-07-10T03:24:22;6.93;;;1.25;;
31732;SDS011;18312;51.486;7.144;2022-07-10T03:26:49;4.78;;;0.90;;
31732;SDS011;18312;51.486;7.144;2022-07-10T03:29:16;3.08;;;0.95;;
31732;SDS011;18312;51.486;7.144;2022-07-10T03:31:43;4.22;;;0.70;;
31732;SDS011;18312;51.486;7.144;2022-07-10T03:34:09;5.72;;;0.70;;
31732;SDS011;18312;51.486;7.144;2022-07-10T03:36:37;8.77;;;1.13;;
31732;SDS011;18312;51.486;7.144;2022-07-10T03:39:04;6.65;;;0.80;;
31732;SDS011;18312;51.486;7.144;2022-07-10T03:41:31;2.97;;;1.38;;
31732;SDS011;18312;51.486;7.144;2022-07-10T03:43:58;4.88;;;1.05;;
31732;SDS011;18312;51.486;7.144;2022-07-10T03:46:24;5.78;;;1.08;;
31732;SDS011;18312;51.486;7.144;2022-07-10T03:48:51;4.00;;;1.08;;
31732;SDS011;18312;51.486;7.144;2022-07-10T03:51:18;10.43;;;1.10;;
31732;SDS011;18312;51.486;7.144;2022-07-10T03:53:46;5.20;;;1.30;;
31732;SDS011;18312;51.486;7.144;2022-07-10T03:56:13;7.88;;;1.27;;
31732;SDS011;18312;51.486;7.144;2022-07-10T03:59:00;4.68;;;1.65;;
31732;SDS011;18312;51.486;7.144;2022-07-10T04:01:26;10.15;;;1.40;;
31732;SDS011;18312;51.486;7.144;2022-07-10T04:03:52;1.83;;;0.73;;
31732;SDS011;18312;51.486;7.144;2022-07-10T04:06:19;3.20;;;1.05;;
31732;SDS011;18312;51.486;7.144;2022-07-10T04:08:47;4.00;;;0.77;;
31732;SDS011;18312;51.486;7.144;2022-07-10T04:11:14;3.08;;;0.75;;
31732;SDS011;18312;51.486;7.144;2022-07-10T04:13:41;4.97;;;0.80;;
31732;SDS011;18312;51.486;7.144;2022-07-10T04:16:07;8.77;;;1.20;;
31732;SDS011;18312;51.486;7.144;2022-07-10T04:18:37;4.55;;;0.90;;
31732;SDS011;18312;51.486;7.144;2022-07-10T04:21:04;4.72;;;1.73;;
31732;SDS011;18312;51.486;7.144;2022-07-10T04:23:31;6.53;;;0.82;;
31732;SDS011;18312;51.486;7.144;2022-07-10T04:26:00;9.15;;;1.63;;
31732;SDS011;18312;51.486;7.144;2022-07-10T04:28:26;8.55;;;1.25;;
31732;SDS011;18312;51.486;7.144;2022-07-10T04:30:53;2.83;;;0.77;;
31732;SDS011;18312;51.486;7.144;2022-07-10T04:33:20;4.30;;;1.35;;
31732;SDS011;18312;51.486;7.144;2022-07-10T04:35:46;7.97;;;1.35;;
31732;SDS011;18312;51.486;7.144;2022-07-10T04:38:13;10.43;;;1.00;;
31732;SDS011;18312;51.486;7.144;2022-07-10T04:40:40;3.30;;;0.80;;
31732;SDS011;18312;51.486;7.144;2022-07-10T04:43:08;5.38;;;1.00;;
31732;SDS011;18312;51.486;7.144;2022-07-10T04:45:35;5.15;;;0.80;;
31732;SDS011;18312;51.486;7.144;2022-07-10T04:48:02;3.72;;;0.98;;
31732;SDS011;18312;51.486;7.144;2022-07-10T04:50:29;8.75;;;1.58;;
31732;SDS011;18312;51.486;7.144;2022-07-10T04:52:56;1.45;;;0.95;;
31732;SDS011;18312;51.486;7.144;2022-07-10T04:55:23;9.43;;;0.93;;
31732;SDS011;18312;51.486;7.144;2022-07-10T04:57:50;3.17;;;1.00;;
31732;SDS011;18312;51.486;7.144;2022-07-10T05:00:18;3.67;;;1.42;;
31732;SDS011;18312;51.486;7.144;2022-07-10T05:02:45;4.93;;;1.27;;
31732;SDS011;18312;51.486;7.144;2022-07-10T05:05:11;3.45;;;1.40;;
31732;SDS011;18312;51.486;7.144;2022-07-10T05:07:38;1.55;;;0.65;;
31732;SDS011;18312;51.486;7.144;2022-07-10T05:10:05;2.72;;;0.88;;
31732;SDS011;18312;51.486;7.144;2022-07-10T05:12:32;7.20;;;1.05;;
31732;SDS011;18312;51.486;7.144;2022-07-10T05:14:59;6.75;;;1.15;;
31732;SDS011;18312;51.486;7.144;2022-07-10T05:17:27;12.40;;;1.65;;
31732;SDS011;18312;51.486;7.144;2022-07-10T05:19:54;5.38;;;0.90;;
31732;SDS011;18312;51.486;7.144;2022-07-10T05:22:21;10.85;;;1.30;;
31732;SDS011;18312;51.486;7.144;2022-07-10T05:24:48;8.50;;;1.15;;
31732;SDS011;18312;51.486;7.144;2022-07-10T05:27:15;4.93;;;1.42;;
31732;SDS011;18312;51.486;7.144;2022-07-10T05:29:43;2.47;;;1.20;;
31732;SDS011;18312;51.486;7.144;2022-07-10T05:32:09;5.13;;;0.73;;
31732;SDS011;18312;51.486;7.144;2022-07-10T05:34:37;7.07;;;1.23;;
31732;SDS011;18312;51.486;7.144;2022-07-10T05:37:04;4.88;;;1.45;;
31732;SDS011;18312;51.486;7.144;2022-07-10T05:39:32;3.80;;;0.85;;
31732;SDS011;18312;51.486;7.144;2022-07-10T05:41:58;12.35;;;1.27;;
31732;SDS011;18312;51.486;7.144;2022-07-10T05:44:25;8.55;;;0.82;;
31732;SDS011;18312;51.486;7.144;2022-07-10T05:46:52;3.83;;;1.50;;
31732;SDS011;18312;51.486;7.144;2022-07-10T05:49:18;2.05;;;1.20;;
31732;SDS011;18312;51.486;7.144;2022-07-10T05:51:46;5.60;;;0.95;;
31732;SDS011;18312;51.486;7.144;2022-07-10T05:54:13;4.25;;;0.70;;
31732;SDS011;18312;51.486;7.144;2022-07-10T05:56:40;8.63;;;1.00;;
31732;SDS011;18312;51.486;7.144;2022-07-10T05:59:06;7.55;;;1.00;;
31732;SDS011;18312;51.486;7.144;2022-07-10T06:01:33;2.13;;;0.75;;
31732;SDS011;18312;51.486;7.144;2022-07-10T06:04:00;4.88;;;0.95;;
31732;SDS011;18312;51.486;7.144;2022-07-10T06:06:27;5.72;;;0.90;;
31732;SDS011;18312;51.486;7.144;2022-07-10T06:08:55;6.90;;;1.58;;
31732;SDS011;18312;51.486;7.144;2022-07-10T06:13:50;4.57;;;0.98;;
31732;SDS011;18312;51.486;7.144;2022-07-10T06:16:17;3.92;;;0.93;;
31732;SDS011;18312;51.486;7.144;2022-07-10T06:18:43;7.00;;;1.50;;
31732;SDS011;18312;51.486;7.144;2022-07-10T06:21:10;3.97;;;0.90;;
31732;SDS011;18312;51.486;7.144;2022-07-10T06:23:37;5.88;;;1.33;;
31732;SDS011;18312;51.486;7.144;2022-07-10T06:26:05;1.30;;;0.60;;
31732;SDS011;18312;51.486;7.144;2022-07-10T06:28:33;3.88;;;0.90;;
31732;SDS011;18312;51.486;7.144;2022-07-10T06:31:00;4.83;;;0.80;;
31732;SDS011;18312;51.486;7.144;2022-07-10T06:33:27;2.10;;;0.60;;
31732;SDS011;18312;51.486;7.144;2022-07-10T06:35:54;4.38;;;0.85;;
31732;SDS011;18312;51.486;7.144;2022-07-10T06:38:20;1.33;;;0.57;;
31732;SDS011;18312;51.486;7.144;2022-07-10T06:40:47;6.65;;;1.77;;
31732;SDS011;18312;51.486;7.144;2022-07-10T06:43:15;3.33;;;0.90;;
31732;SDS011;18312;51.486;7.144;2022-07-10T06:45:42;4.75;;;0.68;;
31732;SDS011;18312;51.486;7.144;2022-07-10T06:48:10;7.05;;;0.90;;
31732;SDS011;18312;51.486;7.144;2022-07-10T06:50:36;5.68;;;0.85;;
31732;SDS011;18312;51.486;7.144;2022-07-10T06:53:03;3.00;;;1.17;;
31732;SDS011;18312;51.486;7.144;2022-07-10T06:55:31;2.35;;;1.13;;
31732;SDS011;18312;51.486;7.144;2022-07-10T06:57:58;2.28;;;0.93;;
31732;SDS011;18312;51.486;7.144;2022-07-10T07:00:27;1.80;;;1.25;;
31732;SDS011;18312;51.486;7.144;2022-07-10T07:02:54;8.90;;;1.42;;
31732;SDS011;18312;51.486;7.144;2022-07-10T07:05:21;7.05;;;0.85;;
31732;SDS011;18312;51.486;7.144;2022-07-10T07:07:48;10.95;;;1.00;;
31732;SDS011;18312;51.486;7.144;2022-07-10T07:10:15;6.15;;;1.17;;
31732;SDS011;18312;51.486;7.144;2022-07-10T07:12:41;4.18;;;0.85;;
31732;SDS011;18312;51.486;7.144;2022-07-10T07:15:08;8.27;;;1.13;;
31732;SDS011;18312;51.486;7.144;2022-07-10T07:17:40;10.65;;;1.48;;
31732;SDS011;18312;51.486;7.144;2022-07-10T07:20:36;6.85;;;1.27;;
31732;SDS011;18312;51.486;7.144;2022-07-10T07:23:21;4.60;;;1.23;;
31732;SDS011;18312;51.486;7.144;2022-07-10T07:25:49;5.30;;;0.73;;
31732;SDS011;18312;51.486;7.144;2022-07-10T07:28:16;2.22;;;0.82;;
31732;SDS011;18312;51.486;7.144;2022-07-10T07:30:44;2.92;;;0.80;;
31732;SDS011;18312;51.486;7.144;2022-07-10T07:33:13;2.90;;;0.95;;
31732;SDS011;18312;51.486;7.144;2022-07-10T07:35:40;6.78;;;1.10;;
31732;SDS011;18312;51.486;7.144;2022-07-10T07:38:07;4.80;;;0.80;;
31732;SDS011;18312;51.486;7.144;2022-07-10T07:40:34;6.97;;;0.90;;
31732;SDS011;18312;51.486;7.144;2022-07-10T07:43:02;9.15;;;1.00;;
31732;SDS011;18312;51.486;7.144;2022-07-10T07:45:29;7.30;;;0.98;;
31732;SDS011;18312;51.486;7.144;2022-07-10T07:47:56;6.70;;;0.90;;
31732;SDS011;18312;51.486;7.144;2022-07-10T07:50:27;5.20;;;0.80;;
31732;SDS011;18312;51.486;7.144;2022-07-10T07:52:54;4.95;;;1.50;;
31732;SDS011;18312;51.486;7.144;2022-07-10T07:55:21;5.72;;;0.98;;
31732;SDS011;18312;51.486;7.144;2022-07-10T07:57:50;6.72;;;1.27;;
31732;SDS011;18312;51.486;7.144;2022-07-10T08:02:47;8.77;;;1.60;;
31732;SDS011;18312;51.486;7.144;2022-07-10T08:05:14;6.20;;;1.40;;
31732;SDS011;18312;51.486;7.144;2022-07-10T08:07:43;7.38;;;2.20;;
31732;SDS011;18312;51.486;7.144;2022-07-10T08:10:12;6.50;;;1.73;;
31732;SDS011;18312;51.486;7.144;2022-07-10T08:12:40;7.88;;;1.13;;
31732;SDS011;18312;51.486;7.144;2022-07-10T08:15:07;7.22;;;1.02;;
31732;SDS011;18312;51.486;7.144;2022-07-10T08:17:34;7.63;;;1.52;;
31732;SDS011;18312;51.486;7.144;2022-07-10T08:20:02;2.25;;;1.02;;
31732;SDS011;18312;51.486;7.144;2022-07-10T08:22:29;9.77;;;1.17;;
31732;SDS011;18312;51.486;7.144;2022-07-10T08:24:57;7.47;;;1.65;;
31732;SDS011;18312;51.486;7.144;2022-07-10T08:27:24;5.85;;;1.20;;
31732;SDS011;18312;51.486;7.144;2022-07-10T08:29:51;6.07;;;1.30;;
31732;SDS011;18312;51.486;7.144;2022-07-10T08:32:17;4.32;;;1.23;;
31732;SDS011;18312;51.486;7.144;2022-07-10T08:34:44;5.07;;;1.88;;
31732;SDS011;18312;51.486;7.144;2022-07-10T08:37:11;5.00;;;1.40;;
31732;SDS011;18312;51.486;7.144;2022-07-10T08:39:37;6.95;;;1.33;;
31732;SDS011;18312;51.486;7.144;2022-07-10T08:42:06;5.75;;;1.67;;
31732;SDS011;18312;51.486;7.144;2022-07-10T08:44:36;5.45;;;1.95;;
31732;SDS011;18312;51.486;7.144;2022-07-10T08:47:03;8.93;;;1.75;;
31732;SDS011;18312;51.486;7.144;2022-07-10T08:49:31;5.80;;;1.30;;
31732;SDS011;18312;51.486;7.144;2022-07-10T08:52:02;4.38;;;1.58;;
31732;SDS011;18312;51.486;7.144;2022-07-10T08:54:31;11.10;;;1.77;;
31732;SDS011;18312;51.486;7.144;2022-07-10T08:56:59;9.70;;;2.00;;
31732;SDS011;18312;51.486;7.144;2022-07-10T08:59:28;4.30;;;1.50;;
31732;SDS011;18312;51.486;7.144;2022-07-10T09:01:55;5.90;;;2.13;;
31732;SDS011;18312;51.486;7.144;2022-07-10T09:04:23;7.40;;;1.55;;
31732;SDS011;18312;51.486;7.144;2022-07-10T09:06:51;4.88;;;1.52;;
31732;SDS011;18312;51.486;7.144;2022-07-10T09:09:20;4.80;;;1.45;;
31732;SDS011;18312;51.486;7.144;2022-07-10T09:11:49;7.70;;;1.98;;
31732;SDS011;18312;51.486;7.144;2022-07-10T09:14:22;12.90;;;2.00;;
31732;SDS011;18312;51.486;7.144;2022-07-10T09:16:52;8.70;;;2.22;;
31732;SDS011;18312;51.486;7.144;2022-07-10T09:19:19;5.63;;;2.20;;
31732;SDS011;18312;51.486;7.144;2022-07-10T09:21:48;6.78;;;2.30;;
31732;SDS011;18312;51.486;7.144;2022-07-10T09:24:16;6.60;;;2.00;;
31732;SDS011;18312;51.486;7.144;2022-07-10T09:26:47;3.88;;;1.88;;
31732;SDS011;18312;51.486;7.144;2022-07-10T09:29:23;3.88;;;2.15;;
31732;SDS011;18312;51.486;7.144;2022-07-10T09:31:52;6.13;;;2.47;;
31732;SDS011;18312;51.486;7.144;2022-07-10T09:37:18;8.50;;;2.55;;
31732;SDS011;18312;51.486;7.144;2022-07-10T09:39:52;4.70;;;2.17;;
31732;SDS011;18312;51.486;7.144;2022-07-10T09:42:27;12.40;;;3.22;;
31732;SDS011;18312;51.486;7.144;2022-07-10T09:45:15;8.07;;;3.17;;
31732;SDS011;18312;51.486;7.144;2022-07-10T09:47:45;5.15;;;2.53;;
31732;SDS011;18312;51.486;7.144;2022-07-10T09:50:21;5.40;;;3.22;;
31732;SDS011;18312;51.486;7.144;2022-07-10T09:52:50;9.95;;;3.75;;
31732;SDS011;18312;51.486;7.144;2022-07-10T09:55:18;6.25;;;3.50;;
31732;SDS011;18312;51.486;7.144;2022-07-10T09:57:48;9.52;;;4.45;;
31732;SDS011;18312;51.486;7.144;2022-07-10T10:00:21;6.25;;;3.85;;
31732;SDS011;18312;51.486;7.144;2022-07-10T10:02:52;7.00;;;3.60;;
31732;SDS011;18312;51.486;7.144;2022-07-10T10:05:21;7.53;;;3.75;;
31732;SDS011;18312;51.486;7.144;2022-07-10T10:07:54;10.77;;;3.65;;
31732;SDS011;18312;51.486;7.144;2022-07-10T10:10:22;6.05;;;3.28;;
31732;SDS011;18312;51.486;7.144;2022-07-10T10:12:51;5.45;;;3.15;;
31732;SDS011;18312;51.486;7.144;2022-07-10T10:15:25;7.28;;;3.35;;
31732;SDS011;18312;51.486;7.144;2022-07-10T10:17:54;6.57;;;3.45;;
31732;SDS011;18312;51.486;7.144;2022-07-10T10:20:21;7.57;;;2.83;;
31732;SDS011;18312;51.486;7.144;2022-07-10T10:23:03;9.88;;;3.13;;
31732;SDS011;18312;51.486;7.144;2022-07-10T10:25:32;5.28;;;2.63;;
31732;SDS011;18312;51.486;7.144;2022-07-10T10:27:59;7.47;;;3.75;;
31732;SDS011;18312;51.486;7.144;2022-07-10T10:30:27;6.55;;;4.10;;
31732;SDS011;18312;51.486;7.144;2022-07-10T10:32:56;5.93;;;3.78;;
31732;SDS011;18312;51.486;7.144;2022-07-10T10:35:43;9.50;;;3.67;;
31732;SDS011;18312;51.486;7.144;2022-07-10T10:38:12;5.72;;;3.38;;
31732;SDS011;18312;51.486;7.144;2022-07-10T10:40:39;4.28;;;2.53;;
31732;SDS011;18312;51.486;7.144;2022-07-10T10:43:15;5.55;;;2.83;;
31732;SDS011;18312;51.486;7.144;2022-07-10T10:45:43;7.05;;;2.97;;
31732;SDS011;18312;51.486;7.144;2022-07-10T10:48:12;5.55;;;2.90;;
31732;SDS011;18312;51.486;7.144;2022-07-10T10:50:40;7.18;;;3.83;;
31732;SDS011;18312;51.486;7.144;2022-07-10T10:53:14;6.43;;;3.13;;
31732;SDS011;18312;51.486;7.144;2022-07-10T10:58:42;7.22;;;4.30;;
31732;SDS011;18312;51.486;7.144;2022-07-10T11:01:23;14.57;;;7.63;;
31732;SDS011;18312;51.486;7.144;2022-07-10T11:06:42;21.63;;;12.57;;
31732;SDS011;18312;51.486;7.144;2022-07-10T11:09:25;26.27;;;13.55;;
31732;SDS011;18312;51.486;7.144;2022-07-10T11:11:57;24.45;;;13.18;;
31732;SDS011;18312;51.486;7.144;2022-07-10T11:14:26;22.73;;;12.45;;
31732;SDS011;18312;51.486;7.144;2022-07-10T11:16:54;23.40;;;13.10;;
31732;SDS011;18312;51.486;7.144;2022-07-10T11:19:23;31.60;;;13.38;;
31732;SDS011;18312;51.486;7.144;2022-07-10T11:21:53;25.52;;;13.38;;
31732;SDS011;18312;51.486;7.144;2022-07-10T11:24:33;19.35;;;10.57;;
31732;SDS011;18312;51.486;7.144;2022-07-10T11:27:26;18.10;;;10.05;;
31732;SDS011;18312;51.486;7.144;2022-07-10T11:30:00;13.93;;;8.10;;
31732;SDS011;18312;51.486;7.144;2022-07-10T11:32:27;12.07;;;7.32;;
31732;SDS011;18312;51.486;7.144;2022-07-10T11:34:55;10.55;;;6.18;;
31732;SDS011;18312;51.486;7.144;2022-07-10T11:37:23;9.50;;;5.93;;
31732;SDS011;18312;51.486;7.144;2022-07-10T11:40:06;6.30;;;4.95;;
31732;SDS011;18312;51.486;7.144;2022-07-10T11:42:47;5.80;;;3.90;;
31732;SDS011;18312;51.486;7.144;2022-07-10T11:45:25;5.82;;;3.75;;
31732;SDS011;18312;51.486;7.144;2022-07-10T11:47:56;4.40;;;4.00;;
31732;SDS011;18312;51.486;7.144;2022-07-10T11:50:24;3.50;;;3.15;;
31732;SDS011;18312;51.486;7.144;2022-07-10T11:52:53;5.00;;;2.80;;
31732;SDS011;18312;51.486;7.144;2022-07-10T11:55:20;3.67;;;3.10;;
31732;SDS011;18312;51.486;7.144;2022-07-10T11:57:48;3.33;;;2.65;;
31732;SDS011;18312;51.486;7.144;2022-07-10T12:00:22;2.40;;;1.80;;
31732;SDS011;18312;51.486;7.144;2022-07-10T12:02:50;1.40;;;1.15;;
31732;SDS011;18312;51.486;7.144;2022-07-10T12:05:31;1.50;;;1.08;;
31732;SDS011;18312;51.486;7.144;2022-07-10T12:07:59;1.83;;;1.08;;
31732;SDS011;18312;51.486;7.144;2022-07-10T12:10:26;1.67;;;0.82;;
31732;SDS011;18312;51.486;7.144;2022-07-10T12:12:53;1.35;;;0.60;;
31732;SDS011;18312;51.486;7.144;2022-07-10T12:15:32;0.80;;;0.80;;
31732;SDS011;18312;51.486;7.144;2022-07-10T12:18:02;1.83;;;0.85;;
31732;SDS011;18312;51.486;7.144;2022-07-10T12:20:28;1.38;;;0.90;;
31732;SDS011;18312;51.486;7.144;2022-07-10T12:22:57;0.98;;;0.57;;
31732;SDS011;18312;51.486;7.144;2022-07-10T12:25:24;0.80;;;0.80;;
31732;SDS011;18312;51.486;7.144;2022-07-10T12:27:54;3.03;;;1.30;;
31732;SDS011;18312;51.486;7.144;2022-07-10T12:30:22;2.15;;;1.45;;
31732;SDS011;18312;51.486;7.144;2022-07-10T12:32:49;3.60;;;1.55;;
31732;SDS011;18312;51.486;7.144;2022-07-10T12:35:15;3.33;;;1.33;;
31732;SDS011;18312;51.486;7.144;2022-07-10T12:37:47;1.67;;;1.58;;
31732;SDS011;18312;51.486;7.144;2022-07-10T12:40:31;2.95;;;1.20;;
31732;SDS011;18312;51.486;7.144;2022-07-10T12:43:02;2.78;;;1.08;;
31732;SDS011;18312;51.486;7.144;2022-07-10T12:45:29;1.95;;;1.35;;
31732;SDS011;18312;51.486;7.144;2022-07-10T12:47:55;1.10;;;1.00;;
31732;SDS011;18312;51.486;7.144;2022-07-10T12:50:22;3.03;;;0.80;;
31732;SDS011;18312;51.486;7.144;2022-07-10T12:52:50;1.88;;;1.27;;
31732;SDS011;18312;51.486;7.144;2022-07-10T12:55:38;1.27;;;0.95;;
31732;SDS011;18312;51.486;7.144;2022-07-10T12:58:06;1.50;;;1.05;;
31732;SDS011;18312;51.486;7.144;2022-07-10T13:00:42;2.80;;;1.25;;
31732;SDS011;18312;51.486;7.144;2022-07-10T13:03:10;1.33;;;0.65;;
31732;SDS011;18312;51.486;7.144;2022-07-10T13:05:43;1.20;;;0.60;;
31732;SDS011;18312;51.486;7.144;2022-07-10T13:08:11;1.80;;;0.40;;
31732;SDS011;18312;51.486;7.144;2022-07-10T13:13:08;3.10;;;0.80;;
31732;SDS011;18312;51.486;7.144;2022-07-10T13:15:36;1.30;;;0.57;;
31732;SDS011;18312;51.486;7.144;2022-07-10T13:18:06;2.05;;;0.80;;
31732;SDS011;18312;51.486;7.144;2022-07-10T13:20:33;5.10;;;0.63;;
31732;SDS011;18312;51.486;7.144;2022-07-10T13:23:00;1.58;;;0.60;;
31732;SDS011;18312;51.486;7.144;2022-07-10T13:25:26;3.40;;;0.70;;
31732;SDS011;18312;51.486;7.144;2022-07-10T13:27:55;2.15;;;1.13;;
31732;SDS011;18312;51.486;7.144;2022-07-10T13:30:22;1.50;;;0.70;;
31732;SDS011;18312;51.486;7.144;2022-07-10T13:32:48;1.50;;;0.70;;
31732;SDS011;18312;51.486;7.144;2022-07-10T13:35:15;7.05;;;1.00;;
31732;SDS011;18312;51.486;7.144;2022-07-10T13:37:42;1.55;;;0.70;;
31732;SDS011;18312;51.486;7.144;2022-07-10T13:40:09;2.03;;;0.93;;
31732;SDS011;18312;51.486;7.144;2022-07-10T13:42:36;0.60;;;0.60;;
31732;SDS011;18312;51.486;7.144;2022-07-10T13:45:05;1.85;;;0.80;;
31732;SDS011;18312;51.486;7.144;2022-07-10T13:47:33;3.53;;;0.90;;
31732;SDS011;18312;51.486;7.144;2022-07-10T13:50:00;2.85;;;0.98;;
31732;SDS011;18312;51.486;7.144;2022-07-10T13:52:27;2.22;;;0.75;;
31732;SDS011;18312;51.486;7.144;2022-07-10T13:54:53;4.65;;;1.25;;
31732;SDS011;18312;51.486;7.144;2022-07-10T13:57:20;1.33;;;0.80;;
31732;SDS011;18312;51.486;7.144;2022-07-10T13:59:47;2.65;;;0.90;;
31732;SDS011;18312;51.486;7.144;2022-07-10T14:02:15;2.58;;;0.85;;
31732;SDS011;18312;51.486;7.144;2022-07-10T14:04:42;1.63;;;0.60;;
31732;SDS011;18312;51.486;7.144;2022-07-10T14:07:08;4.82;;;1.15;;
31732;SDS011;18312;51.486;7.144;2022-07-10T14:09:35;3.28;;;0.82;;
31732;SDS011;18312;51.486;7.144;2022-07-10T14:12:02;1.85;;;0.88;;
31732;SDS011;18312;51.486;7.144;2022-07-10T14:14:29;2.38;;;0.93;;
31732;SDS011;18312;51.486;7.144;2022-07-10T14:16:55;1.45;;;0.50;;
31732;SDS011;18312;51.486;7.144;2022-07-10T14:19:23;1.38;;;0.80;;
31732;SDS011;18312;51.486;7.144;2022-07-10T14:21:50;2.33;;;0.70;;
31732;SDS011;18312;51.486;7.144;2022-07-10T14:24:17;4.03;;;0.95;;
31732;SDS011;18312;51.486;7.144;2022-07-10T14:26:44;1.80;;;1.30;;
31732;SDS011;18312;51.486;7.144;2022-07-10T14:29:12;2.65;;;0.88;;
31732;SDS011;18312;51.486;7.144;2022-07-10T14:31:38;1.05;;;0.60;;
31732;SDS011;18312;51.486;7.144;2022-07-10T14:34:05;4.53;;;1.02;;
31732;SDS011;18312;51.486;7.144;2022-07-10T14:36:34;3.45;;;1.10;;
31732;SDS011;18312;51.486;7.144;2022-07-10T14:39:00;2.50;;;1.23;;
31732;SDS011;18312;51.486;7.144;2022-07-10T14:41:27;5.75;;;1.17;;
31732;SDS011;18312;51.486;7.144;2022-07-10T14:43:54;2.33;;;1.35;;
31732;SDS011;18312;51.486;7.144;2022-07-10T14:46:21;6.10;;;1.73;;
31732;SDS011;18312;51.486;7.144;2022-07-10T14:48:47;3.50;;;1.27;;
31732;SDS011;18312;51.486;7.144;2022-07-10T14:51:16;3.40;;;1.55;;
31732;SDS011;18312;51.486;7.144;2022-07-10T14:53:44;2.83;;;1.50;;
31732;SDS011;18312;51.486;7.144;2022-07-10T14:58:41;3.05;;;1.70;;
31732;SDS011;18312;51.486;7.144;2022-07-10T15:01:07;1.60;;;1.10;;
31732;SDS011;18312;51.486;7.144;2022-07-10T15:03:35;5.75;;;1.63;;
31732;SDS011;18312;51.486;7.144;2022-07-10T15:06:01;4.45;;;0.93;;
31732;SDS011;18312;51.486;7.144;2022-07-10T15:08:28;2.78;;;1.00;;
31732;SDS011;18312;51.486;7.144;2022-07-10T15:10:56;2.95;;;1.27;;